createdAt,value
2023-04-22T00:02:23.535Z,6.45
2023-04-22T00:04:51.390Z,7.40
2023-04-22T00:07:19.843Z,6.95
2023-04-22T00:09:47.329Z,7.65
2023-04-22T00:12:14.878Z,7.63
2023-04-22T00:14:42.373Z,6.93
2023-04-22T00:17:11.429Z,6.78
2023-04-22T00:19:39.182Z,6.85
2023-04-22T00:22:06.940Z,6.47
2023-04-22T00:24:34.452Z,7.50
2023-04-22T00:27:02.980Z,6.85
2023-04-22T00:29:30.483Z,7.10
2023-04-22T00:31:58.044Z,7.13
2023-04-22T00:34:26.973Z,7.30
2023-04-22T00:36:54.474Z,7.32
2023-04-22T00:39:22.029Z,8.45
2023-04-22T00:41:50.201Z,7.03
2023-04-22T00:44:18.315Z,7.30
2023-04-22T00:46:46.163Z,7.30
2023-04-22T00:49:13.832Z,6.70
2023-04-22T00:51:42.812Z,7.32
2023-04-22T00:54:10.793Z,7.97
2023-04-22T00:56:42.006Z,6.97
2023-04-22T00:59:11.663Z,7.80
2023-04-22T01:01:39.636Z,7.65
2023-04-22T01:04:15.347Z,6.57
2023-04-22T01:06:45.010Z,7.53
2023-04-22T01:09:12.782Z,7.25
2023-04-22T01:11:40.379Z,7.43
2023-04-22T01:14:07.903Z,6.78
2023-04-22T01:16:38.991Z,7.65
2023-04-22T01:19:06.758Z,7.43
2023-04-22T01:21:34.704Z,7.18
2023-04-22T01:24:03.989Z,7.70
2023-04-22T01:26:31.643Z,7.05
2023-04-22T01:28:59.413Z,6.75
2023-04-22T01:31:26.950Z,7.50
2023-04-22T01:33:55.156Z,7.40
2023-04-22T01:36:22.783Z,6.97
2023-04-22T01:38:50.400Z,7.70
2023-04-22T01:41:19.993Z,7.10
2023-04-22T01:43:48.430Z,7.38
2023-04-22T01:46:18.087Z,8.02
2023-04-22T01:48:50.379Z,7.30
2023-04-22T01:51:18.322Z,7.72
2023-04-22T01:53:45.860Z,7.60
2023-04-22T01:56:13.375Z,7.65
2023-04-22T01:58:42.442Z,7.95
2023-04-22T02:01:10.690Z,7.28
2023-04-22T02:03:38.416Z,7.32
2023-04-22T02:06:06.111Z,7.50
2023-04-22T02:08:33.659Z,7.25
2023-04-22T02:11:01.753Z,7.50
2023-04-22T02:13:35.475Z,7.22
2023-04-22T02:16:06.859Z,7.45
2023-04-22T02:18:34.592Z,7.40
2023-04-22T02:21:02.431Z,6.85
2023-04-22T02:23:30.110Z,7.50
2023-04-22T02:25:57.689Z,8.40
2023-04-22T02:28:25.208Z,7.65
2023-04-22T02:30:52.877Z,7.95
2023-04-22T02:33:21.834Z,8.00
2023-04-22T02:35:49.409Z,7.78
2023-04-22T02:38:17.079Z,7.57
2023-04-22T02:40:44.624Z,7.80
2023-04-22T02:43:12.148Z,7.70
2023-04-22T02:45:40.983Z,7.38
2023-04-22T02:48:09.987Z,8.00
2023-04-22T02:50:39.086Z,7.65
2023-04-22T02:53:06.549Z,7.75
2023-04-22T02:55:35.165Z,8.32
2023-04-22T02:58:03.341Z,7.82
2023-04-22T03:00:30.892Z,7.15
2023-04-22T03:02:58.509Z,7.22
2023-04-22T03:05:31.459Z,7.78
2023-04-22T03:08:06.514Z,7.72
2023-04-22T03:10:39.365Z,7.28
2023-04-22T03:13:07.057Z,7.80
2023-04-22T03:15:35.285Z,7.35
2023-04-22T03:18:03.318Z,7.47
2023-04-22T03:20:30.910Z,7.70
2023-04-22T03:22:59.995Z,7.88
2023-04-22T03:25:31.027Z,7.70
2023-04-22T03:27:58.655Z,8.15
2023-04-22T03:30:26.691Z,7.00
2023-04-22T03:32:54.471Z,6.93
2023-04-22T03:35:22.832Z,7.55
2023-04-22T03:38:04.258Z,7.25
2023-04-22T03:40:33.361Z,6.55
2023-04-22T03:43:01.127Z,7.90
2023-04-22T03:45:28.896Z,8.20
2023-04-22T03:48:27.353Z,7.82
2023-04-22T03:50:54.887Z,7.22
2023-04-22T03:53:22.507Z,7.53
2023-04-22T03:55:53.381Z,7.80
2023-04-22T03:58:21.479Z,7.90
2023-04-22T04:00:49.317Z,8.25
2023-04-22T04:03:17.221Z,8.30
2023-04-22T04:05:45.682Z,7.60
2023-04-22T04:08:16.025Z,8.07
2023-04-22T04:10:44.382Z,8.60
2023-04-22T04:13:13.648Z,8.63
2023-04-22T04:15:41.205Z,7.93
2023-04-22T04:18:09.860Z,7.75
2023-04-22T04:20:37.352Z,8.48
2023-04-22T04:23:04.925Z,7.65
2023-04-22T04:25:37.857Z,8.38
2023-04-22T04:28:10.213Z,8.95
2023-04-22T04:30:41.571Z,8.82
2023-04-22T04:33:10.499Z,8.85
2023-04-22T04:35:38.585Z,8.93
2023-04-22T04:38:06.639Z,9.52
2023-04-22T04:40:34.787Z,8.05
2023-04-22T04:43:04.796Z,7.63
2023-04-22T04:45:32.435Z,8.63
2023-04-22T04:48:02.712Z,8.18
2023-04-22T04:50:30.528Z,8.02
2023-04-22T04:52:58.100Z,8.15
2023-04-22T04:55:25.980Z,8.48
2023-04-22T04:57:53.520Z,8.00
2023-04-22T05:00:21.221Z,8.30
2023-04-22T05:02:48.959Z,7.82
2023-04-22T05:05:19.046Z,7.80
2023-04-22T05:07:51.295Z,8.48
2023-04-22T05:10:18.801Z,7.72
2023-04-22T05:12:47.886Z,8.43
2023-04-22T05:15:21.596Z,8.02
2023-04-22T05:17:49.180Z,8.63
2023-04-22T05:20:18.074Z,8.73
2023-04-22T05:22:46.060Z,8.20
2023-04-22T05:28:49.876Z,7.85
2023-04-22T05:31:31.433Z,7.68
2023-04-22T05:33:59.161Z,7.75
2023-04-22T05:36:30.659Z,7.18
2023-04-22T05:38:59.993Z,7.97
2023-04-22T05:41:27.895Z,8.23
2023-04-22T05:43:55.444Z,8.38
2023-04-22T05:46:23.233Z,9.48
2023-04-22T05:48:51.767Z,10.45
2023-04-22T05:51:19.709Z,8.25
2023-04-22T05:53:49.026Z,8.45
2023-04-22T05:56:16.627Z,8.32
2023-04-22T05:58:44.322Z,8.98
2023-04-22T06:01:13.060Z,9.90
2023-04-22T06:03:50.471Z,7.93
2023-04-22T06:06:18.410Z,7.78
2023-04-22T06:08:48.094Z,7.88
2023-04-22T06:11:19.559Z,7.00
2023-04-22T06:13:47.070Z,7.88
2023-04-22T06:16:34.097Z,7.55
2023-04-22T06:19:01.795Z,7.55
2023-04-22T06:21:38.942Z,7.57
2023-04-22T06:24:07.068Z,6.85
2023-04-22T06:26:45.572Z,6.38
2023-04-22T06:29:30.401Z,6.55
2023-04-22T06:32:29.710Z,6.75
2023-04-22T06:34:57.272Z,6.13
2023-04-22T06:37:27.396Z,6.30
2023-04-22T06:39:54.895Z,6.85
2023-04-22T06:42:25.970Z,6.10
2023-04-22T06:44:53.635Z,6.75
2023-04-22T06:47:21.333Z,6.63
2023-04-22T06:49:50.316Z,6.95
2023-04-22T06:52:17.883Z,5.88
2023-04-22T06:54:45.573Z,5.65
2023-04-22T06:57:13.209Z,6.20
2023-04-22T06:59:43.262Z,5.90
2023-04-22T07:02:27.624Z,6.03
2023-04-22T07:04:55.272Z,6.78
2023-04-22T07:07:28.390Z,5.97
2023-04-22T07:09:56.283Z,5.40
2023-04-22T07:12:25.654Z,5.90
2023-04-22T07:14:54.983Z,6.78
2023-04-22T07:17:23.076Z,6.95
2023-04-22T07:19:50.971Z,6.15
2023-04-22T07:22:18.558Z,5.80
2023-04-22T07:24:46.153Z,6.10
2023-04-22T07:27:13.667Z,6.03
2023-04-22T07:29:41.439Z,5.90
2023-04-22T07:32:18.583Z,6.25
2023-04-22T07:34:46.166Z,5.68
2023-04-22T07:37:16.198Z,5.40
2023-04-22T07:39:43.879Z,5.70
2023-04-22T07:42:12.882Z,4.80
2023-04-22T07:44:40.943Z,4.60
2023-04-22T07:47:08.857Z,4.82
2023-04-22T07:49:37.976Z,5.20
2023-04-22T07:52:05.839Z,4.30
2023-04-22T07:54:33.512Z,3.38
2023-04-22T07:57:01.673Z,2.35
2023-04-22T07:59:29.285Z,2.60
2023-04-22T08:01:56.973Z,2.50
2023-04-22T08:04:25.323Z,3.58
2023-04-22T08:06:54.940Z,3.33
2023-04-22T08:09:22.501Z,4.30
2023-04-22T08:11:50.316Z,4.40
2023-04-22T08:14:17.811Z,4.03
2023-04-22T08:16:49.803Z,3.88
2023-04-22T08:19:17.309Z,3.28
2023-04-22T08:21:44.808Z,2.85
2023-04-22T08:24:13.733Z,2.70
2023-04-22T08:26:41.591Z,3.53
2023-04-22T08:29:09.075Z,2.22
2023-04-22T08:31:36.585Z,2.30
2023-04-22T08:34:04.078Z,2.13
2023-04-22T08:36:31.693Z,2.30
2023-04-22T08:38:59.255Z,2.53
2023-04-22T08:41:28.157Z,2.50
2023-04-22T08:43:56.316Z,2.47
2023-04-22T08:46:24.842Z,2.70
2023-04-22T08:48:52.577Z,2.20
2023-04-22T08:51:20.089Z,2.30
2023-04-22T08:53:47.801Z,2.50
2023-04-22T08:56:15.331Z,2.22
2023-04-22T08:58:45.787Z,2.10
2023-04-22T09:01:14.267Z,2.38
2023-04-22T09:03:42.583Z,1.90
2023-04-22T09:06:11.687Z,2.35
2023-04-22T09:08:39.980Z,2.30
2023-04-22T09:11:07.527Z,2.30
2023-04-22T09:13:35.886Z,2.20
2023-04-22T09:16:04.972Z,2.38
2023-04-22T09:18:41.029Z,2.17
2023-04-22T09:21:08.600Z,2.53
2023-04-22T09:23:44.357Z,2.30
2023-04-22T09:26:12.569Z,2.15
2023-04-22T09:28:49.808Z,2.10
2023-04-22T09:31:18.770Z,1.92
2023-04-22T09:33:50.800Z,2.10
2023-04-22T09:36:18.372Z,1.90
2023-04-22T09:38:55.757Z,1.73
2023-04-22T09:41:29.899Z,2.30
2023-04-22T09:43:58.723Z,2.30
2023-04-22T09:46:29.147Z,2.20
2023-04-22T09:48:57.258Z,2.17
2023-04-22T09:51:24.813Z,1.92
2023-04-22T09:53:59.244Z,2.13
2023-04-22T09:56:58.505Z,2.00
2023-04-22T09:59:26.513Z,1.90
2023-04-22T10:01:56.602Z,1.90
2023-04-22T10:04:25.521Z,1.92
2023-04-22T10:06:53.592Z,1.90
2023-04-22T10:09:22.150Z,1.95
2023-04-22T10:11:50.587Z,1.98
2023-04-22T10:14:18.068Z,1.90
2023-04-22T10:16:46.907Z,2.22
2023-04-22T10:19:18.269Z,1.80
2023-04-22T10:21:47.450Z,1.80
2023-04-22T10:24:18.954Z,1.92
2023-04-22T10:26:50.376Z,2.10
2023-04-22T10:29:19.158Z,1.88
2023-04-22T10:31:47.090Z,1.77
2023-04-22T10:34:16.400Z,2.00
2023-04-22T10:36:57.437Z,1.98
2023-04-22T10:39:26.053Z,2.00
2023-04-22T10:41:54.416Z,1.98
2023-04-22T10:44:22.700Z,2.70
2023-04-22T10:47:00.224Z,2.22
2023-04-22T10:49:30.690Z,2.05
2023-04-22T10:51:59.415Z,1.65
2023-04-22T10:54:45.683Z,1.83
2023-04-22T10:57:14.499Z,1.60
2023-04-22T10:59:43.558Z,1.70
2023-04-22T11:02:12.865Z,1.83
2023-04-22T11:04:41.722Z,1.85
2023-04-22T11:07:15.775Z,1.90
2023-04-22T11:09:47.960Z,1.83
2023-04-22T11:12:33.429Z,1.80
2023-04-22T11:15:01.328Z,1.63
2023-04-22T11:17:29.306Z,1.90
2023-04-22T11:19:58.375Z,1.80
2023-04-22T11:22:26.016Z,1.90
2023-04-22T11:24:56.785Z,2.13
2023-04-22T11:27:26.704Z,1.92
2023-04-22T11:30:00.788Z,1.95
2023-04-22T11:32:28.701Z,1.77
2023-04-22T11:34:58.310Z,1.60
2023-04-22T11:37:26.165Z,1.60
2023-04-22T11:40:16.879Z,2.22
2023-04-22T11:42:41.756Z,2.10
2023-04-22T11:45:09.762Z,1.80
2023-04-22T11:47:37.416Z,1.90
2023-04-22T11:50:09.756Z,2.17
2023-04-22T11:52:45.381Z,1.65
2023-04-22T11:55:13.141Z,1.70
2023-04-22T11:57:40.970Z,2.00
2023-04-22T12:00:11.807Z,1.80
2023-04-22T12:02:39.474Z,1.83
2023-04-22T12:05:11.677Z,2.03
2023-04-22T12:07:39.968Z,1.90
2023-04-22T12:10:08.800Z,1.90
2023-04-22T12:12:37.231Z,2.13
2023-04-22T12:15:08.869Z,2.15
2023-04-22T12:17:36.382Z,2.05
2023-04-22T12:20:04.993Z,1.90
2023-04-22T12:22:34.504Z,2.10
2023-04-22T12:25:03.231Z,2.00
2023-04-22T12:27:31.642Z,2.03
2023-04-22T12:29:59.235Z,2.15
2023-04-22T12:32:27.654Z,1.90
2023-04-22T12:34:55.600Z,1.80
2023-04-22T12:37:23.137Z,1.80
2023-04-22T12:39:52.053Z,2.03
2023-04-22T12:42:19.567Z,1.80
2023-04-22T12:44:47.103Z,2.10
2023-04-22T12:47:14.667Z,1.80
2023-04-22T12:49:43.570Z,2.25
2023-04-22T12:52:13.049Z,1.90
2023-04-22T12:54:40.548Z,2.10
2023-04-22T12:57:09.588Z,2.03
2023-04-22T12:59:37.187Z,2.00
2023-04-22T13:02:04.785Z,2.10
2023-04-22T13:04:32.510Z,2.20
2023-04-22T13:07:00.048Z,2.20
2023-04-22T13:09:27.751Z,2.20
2023-04-22T13:11:55.214Z,1.90
2023-04-22T13:14:24.068Z,1.83
2023-04-22T13:16:53.284Z,2.00
2023-04-22T13:19:20.812Z,2.38
2023-04-22T13:21:48.265Z,2.50
2023-04-22T13:24:16.335Z,2.13
2023-04-22T13:26:43.809Z,2.50
2023-04-22T13:29:14.143Z,2.13
2023-04-22T13:31:44.650Z,2.00
2023-04-22T13:34:12.360Z,2.20
2023-04-22T13:36:40.076Z,1.90
2023-04-22T13:39:08.822Z,2.13
2023-04-22T13:41:36.420Z,2.10
2023-04-22T13:44:04.500Z,2.15
2023-04-22T13:46:32.044Z,2.22
2023-04-22T13:49:00.857Z,2.33
2023-04-22T13:51:28.481Z,2.75
2023-04-22T13:53:57.238Z,2.50
2023-04-22T13:56:24.949Z,2.25
2023-04-22T13:58:53.252Z,2.60
2023-04-22T14:01:21.432Z,2.28
2023-04-22T14:03:49.382Z,2.80
2023-04-22T14:06:18.545Z,2.78
2023-04-22T14:08:46.085Z,2.78
2023-04-22T14:11:13.723Z,2.63
2023-04-22T14:13:41.361Z,2.47
2023-04-22T14:16:10.088Z,2.08
2023-04-22T14:18:38.422Z,2.70
2023-04-22T14:21:07.541Z,2.70
2023-04-22T14:23:36.564Z,2.78
2023-04-22T14:26:04.084Z,2.55
2023-04-22T14:28:31.915Z,2.60
2023-04-22T14:30:59.554Z,2.63
2023-04-22T14:33:27.174Z,2.90
2023-04-22T14:35:54.984Z,3.65
2023-04-22T14:38:23.331Z,2.58
2023-04-22T14:40:52.219Z,2.50
2023-04-22T14:43:20.085Z,2.58
2023-04-22T14:45:48.178Z,2.60
2023-04-22T14:48:15.828Z,2.83
2023-04-22T14:50:43.539Z,2.58
2023-04-22T14:53:11.061Z,2.80
2023-04-22T14:55:38.681Z,2.60
2023-04-22T14:58:07.776Z,2.50
2023-04-22T15:00:35.336Z,2.63
2023-04-22T15:03:02.959Z,2.60
2023-04-22T15:05:31.663Z,2.70
2023-04-22T15:07:59.172Z,2.42
2023-04-22T15:10:27.735Z,2.83
2023-04-22T15:12:55.562Z,2.22
2023-04-22T15:15:24.479Z,2.53
2023-04-22T15:17:52.193Z,2.58
2023-04-22T15:20:19.761Z,2.40
2023-04-22T15:22:47.271Z,2.10
2023-04-22T15:25:16.744Z,2.35
2023-04-22T15:27:46.088Z,2.53
2023-04-22T15:30:14.456Z,2.33
2023-04-22T15:32:43.443Z,2.30
2023-04-22T15:35:11.019Z,2.30
2023-04-22T15:37:38.626Z,2.60
2023-04-22T15:40:07.829Z,2.38
2023-04-22T15:42:35.383Z,2.42
2023-04-22T15:45:04.074Z,2.58
2023-04-22T15:47:31.874Z,2.50
2023-04-22T15:50:06.271Z,2.33
2023-04-22T15:52:34.042Z,3.00
2023-04-22T15:55:02.538Z,2.10
2023-04-22T15:57:34.189Z,2.35
2023-04-22T16:00:10.852Z,2.90
2023-04-22T16:02:40.647Z,2.22
2023-04-22T16:05:10.373Z,2.70
2023-04-22T16:07:37.909Z,2.35
2023-04-22T16:10:05.753Z,2.20
2023-04-22T16:12:34.421Z,2.67
2023-04-22T16:15:04.072Z,2.28
2023-04-22T16:17:31.821Z,2.55
2023-04-22T16:20:00.180Z,3.00
2023-04-22T16:22:29.200Z,2.10
2023-04-22T16:24:56.785Z,2.30
2023-04-22T16:27:24.294Z,2.33
2023-04-22T16:29:51.909Z,2.45
2023-04-22T16:32:19.657Z,2.50
2023-04-22T16:34:47.145Z,2.30
2023-04-22T16:37:22.275Z,2.67
2023-04-22T16:39:51.474Z,2.63
2023-04-22T16:42:18.984Z,2.30
2023-04-22T16:44:46.584Z,2.55
2023-04-22T16:47:14.129Z,2.40
2023-04-22T16:49:41.817Z,3.00
2023-04-22T16:52:10.818Z,3.00
2023-04-22T16:54:38.364Z,3.20
2023-04-22T16:57:08.302Z,3.50
2023-04-22T16:59:35.855Z,3.40
2023-04-22T17:02:03.594Z,2.80
2023-04-22T17:04:31.288Z,2.50
2023-04-22T17:06:58.945Z,2.70
2023-04-22T17:09:26.561Z,2.50
2023-04-22T17:11:54.156Z,2.90
2023-04-22T17:14:23.161Z,2.90
2023-04-22T17:16:50.612Z,2.88
2023-04-22T17:19:18.210Z,2.95
2023-04-22T17:21:45.791Z,2.67
2023-04-22T17:24:13.289Z,2.97
2023-04-22T17:26:43.598Z,2.80
2023-04-22T17:29:12.002Z,2.85
2023-04-22T17:31:41.393Z,3.00
2023-04-22T17:34:10.331Z,3.92
2023-04-22T17:36:37.973Z,3.10
2023-04-22T17:39:05.838Z,2.97
2023-04-22T17:41:37.341Z,3.65
2023-04-22T17:44:04.944Z,2.90
2023-04-22T17:46:32.481Z,3.55
2023-04-22T17:49:01.652Z,2.88
2023-04-22T17:51:29.182Z,2.55
2023-04-22T17:53:57.163Z,2.65
2023-04-22T17:56:25.109Z,2.80
2023-04-22T17:58:52.689Z,2.78
2023-04-22T18:01:20.365Z,2.92
2023-04-22T18:03:48.126Z,2.83
2023-04-22T18:06:17.160Z,2.67
2023-04-22T18:08:44.714Z,2.35
2023-04-22T18:11:12.206Z,2.53
2023-04-22T18:13:39.719Z,2.63
2023-04-22T18:16:07.412Z,2.67
2023-04-22T18:18:35.441Z,3.00
2023-04-22T18:21:03.172Z,2.72
2023-04-22T18:23:32.060Z,2.70
2023-04-22T18:25:59.573Z,2.95
2023-04-22T18:28:27.064Z,2.38
2023-04-22T18:30:54.617Z,2.65
2023-04-22T18:33:22.137Z,2.25
2023-04-22T18:35:49.660Z,2.30
2023-04-22T18:38:17.213Z,2.92
2023-04-22T18:40:46.309Z,2.78
2023-04-22T18:43:14.088Z,2.38
2023-04-22T18:45:41.623Z,2.20
2023-04-22T18:48:11.541Z,2.85
2023-04-22T18:50:39.109Z,2.90
2023-04-22T18:53:08.089Z,3.10
2023-04-22T18:55:35.679Z,3.65
2023-04-22T18:58:04.627Z,3.55
2023-04-22T19:00:32.578Z,3.15
2023-04-22T19:03:03.342Z,3.45
2023-04-22T19:05:31.275Z,4.40
2023-04-22T19:07:58.821Z,5.30
2023-04-22T19:10:26.345Z,3.50
2023-04-22T19:12:53.952Z,5.70
2023-04-22T19:15:22.869Z,6.03
2023-04-22T19:17:50.441Z,4.53
2023-04-22T19:20:18.137Z,3.15
2023-04-22T19:22:46.092Z,2.95
2023-04-22T19:25:13.687Z,2.90
2023-04-22T19:27:41.372Z,2.97
2023-04-22T19:30:09.701Z,3.00
2023-04-22T19:32:38.906Z,3.05
2023-04-22T19:35:08.269Z,3.05
2023-04-22T19:37:35.985Z,2.75
2023-04-22T19:40:05.652Z,3.35
2023-04-22T19:42:33.285Z,3.97
2023-04-22T19:45:00.865Z,3.90
2023-04-22T19:47:28.591Z,3.67
2023-04-22T19:49:58.234Z,3.45
2023-04-22T19:52:26.025Z,3.65
2023-04-22T19:54:56.153Z,3.85
2023-04-22T19:57:24.120Z,3.70
2023-04-22T19:59:52.110Z,3.78
2023-04-22T20:02:19.944Z,4.03
2023-04-22T20:04:49.248Z,3.90
2023-04-22T20:07:18.273Z,4.35
2023-04-22T20:09:46.953Z,4.47
2023-04-22T20:12:14.977Z,4.53
2023-04-22T20:14:42.506Z,4.00
2023-04-22T20:17:10.719Z,4.22
2023-04-22T20:19:39.351Z,4.00
2023-04-22T20:22:14.741Z,4.63
2023-04-22T20:24:45.136Z,4.95
2023-04-22T20:27:12.829Z,5.40
2023-04-22T20:29:42.994Z,5.50
2023-04-22T20:32:11.451Z,4.55
2023-04-22T20:34:39.363Z,4.65
2023-04-22T20:37:10.333Z,5.65
2023-04-22T20:39:38.871Z,5.57
2023-04-22T20:42:08.964Z,5.30
2023-04-22T20:44:36.796Z,5.65
2023-04-22T20:47:04.536Z,5.57
2023-04-22T20:49:32.082Z,5.97
2023-04-22T20:51:59.696Z,5.38
2023-04-22T20:54:29.282Z,5.30
2023-04-22T20:56:57.791Z,5.28
2023-04-22T20:59:26.888Z,5.25
2023-04-22T21:01:54.976Z,5.75
2023-04-22T21:04:23.289Z,5.60
2023-04-22T21:06:51.927Z,6.15
2023-04-22T21:09:21.681Z,6.80
2023-04-22T21:11:50.024Z,6.13
2023-04-22T21:14:18.344Z,6.53
2023-04-22T21:16:50.573Z,6.20
2023-04-22T21:19:18.469Z,6.18
2023-04-22T21:21:47.071Z,5.93
2023-04-22T21:24:14.897Z,5.50
2023-04-22T21:26:44.473Z,6.13
2023-04-22T21:29:12.323Z,5.35
2023-04-22T21:31:39.893Z,5.38
2023-04-22T21:34:09.696Z,5.20
2023-04-22T21:36:41.438Z,6.30
2023-04-22T21:39:09.344Z,6.05
2023-04-22T21:41:36.921Z,5.32
2023-04-22T21:44:04.446Z,5.72
2023-04-22T21:46:32.059Z,6.40
2023-04-22T21:48:59.903Z,6.55
2023-04-22T21:51:28.786Z,6.25
2023-04-22T21:53:57.389Z,5.95
2023-04-22T21:56:25.101Z,5.50
2023-04-22T21:58:52.717Z,5.78
2023-04-22T22:01:23.017Z,5.88
2023-04-22T22:03:51.255Z,5.65
2023-04-22T22:06:19.050Z,6.00
2023-04-22T22:08:47.952Z,5.55
2023-04-22T22:11:27.690Z,5.65
2023-04-22T22:13:58.193Z,5.20
2023-04-22T22:16:26.133Z,5.32
2023-04-22T22:18:55.677Z,5.00
2023-04-22T22:21:23.202Z,4.82
2023-04-22T22:23:52.206Z,5.53
2023-04-22T22:26:20.057Z,4.80
2023-04-22T22:28:47.663Z,4.75
2023-04-22T22:31:15.401Z,4.55
2023-04-22T22:33:43.411Z,5.25
2023-04-22T22:36:11.893Z,4.80
2023-04-22T22:38:39.506Z,5.30
2023-04-22T22:41:08.650Z,4.43
2023-04-22T22:43:36.152Z,5.47
2023-04-22T22:46:04.006Z,5.13
2023-04-22T22:48:31.638Z,4.68
2023-04-22T22:50:59.266Z,5.00
2023-04-22T22:53:26.894Z,4.57
2023-04-22T22:55:58.092Z,4.43
2023-04-22T22:58:27.256Z,5.13
2023-04-22T23:00:54.804Z,5.32
2023-04-22T23:03:22.535Z,5.20
2023-04-22T23:05:50.238Z,5.85
2023-04-22T23:08:17.800Z,4.95
2023-04-22T23:10:45.398Z,5.82
2023-04-22T23:13:13.167Z,5.20
2023-04-22T23:15:42.147Z,5.32
2023-04-22T23:18:10.113Z,5.45
2023-04-22T23:20:38.226Z,4.60
2023-04-22T23:23:05.798Z,5.47
2023-04-22T23:25:33.670Z,4.65
2023-04-22T23:28:01.698Z,5.30
2023-04-22T23:30:29.638Z,4.55
2023-04-22T23:32:58.701Z,5.30
2023-04-22T23:35:27.481Z,5.30
2023-04-22T23:37:55.137Z,5.57
2023-04-22T23:40:22.685Z,5.20
2023-04-22T23:42:50.462Z,5.28
2023-04-22T23:45:18.561Z,5.22
2023-04-22T23:47:46.327Z,5.38
2023-04-22T23:50:16.107Z,5.97
2023-04-22T23:52:43.890Z,5.70
2023-04-22T23:55:15.962Z,5.90
2023-04-22T23:57:43.964Z,5.88
